首页
METAR-TAF:

METAR-TAF

机场 :

图卢兹-布拉尼亚克机场

圖盧茲, 法国

纬度: 43-38N, 经度: 001-22E, 海拔: 152米

当前天气观测

该预报发布于45分钟前的05:00 UTC
风速7节,风向西
温度 5°C
湿度 75%
气压 1018 hPa
能见度10公里或以上
多云层高于4500英尺

METAR: LFBO 190500Z AUTO 27007KT 9999 BKN045 05/01 Q1018 TEMPO BKN008

时间: 06:45 (05:45 UTC)

预报

该预报发布于45分钟前的05:00 UTC
预报有效从19日的 06点(UTC)到 20日的 12点(UTC)
风速5节,风向西转西北
能见度10公里或以上
多云层高于3500英尺
成为
从 19日的 10点(UTC)到 19日的 12点(UTC)
能见度10公里或以上
1500米以下无云,无积雨云
成为
从 19日的 22点(UTC)到 19日的 24点(UTC)
能見度: 3000
轻雾
短暂存在
从 20日的 00点(UTC)到 20日的 09点(UTC)
能見度: 0300
成为
从 20日的 09点(UTC)到 20日的 12点(UTC)
风速10节,风向东南
能见度10公里或以上
1500米以下无云,无积雨云

TAF: LFBO 190500Z 1906/2012 30005KT 9999 BKN035 BECMG 1910/1912 CAVOK BECMG 1922/1924 3000 BR TEMPO 2000/2009 0300 FG VV/// BECMG 2009/2012 14010KT CAVOK

超过4000个机场的气象观测和天气预报(METAR&TAF报告)。

可查询的气象台以黄色和红色小点在地图上表示。

将鼠标移到小点上方,可查看气象台名称。

然后点击查看天气观测和预报。

如需切换地图:点击带黑十字的绿色按钮放大地图;点击带横线的绿色按钮缩小地图;或者点击绿色箭头查看邻近地区的地图。


METAR-TAF: